createdAt,value
2022-12-28T00:04:08.333Z,7.05
2022-12-28T00:14:12.438Z,6.63
2022-12-28T00:24:19.376Z,6.48
2022-12-28T00:34:23.464Z,6.09
2022-12-28T00:44:26.300Z,6.16
2022-12-28T00:54:30.310Z,6.22
2022-12-28T01:04:33.322Z,6.04
2022-12-28T01:14:37.977Z,6.11
2022-12-28T01:24:40.990Z,6.21
2022-12-28T01:34:45.162Z,6.28
2022-12-28T01:44:49.308Z,6.22
2022-12-28T01:54:57.303Z,6.29
2022-12-28T02:05:00.623Z,6.26
2022-12-28T02:15:05.614Z,6.40
2022-12-28T02:25:30.889Z,6.43
2022-12-28T02:35:43.250Z,6.69
2022-12-28T02:46:04.264Z,6.40
2022-12-28T02:56:23.125Z,6.37
2022-12-28T03:06:55.696Z,6.36
2022-12-28T03:17:19.761Z,6.36
2022-12-28T03:27:40.976Z,6.67
2022-12-28T03:37:51.239Z,6.71
2022-12-28T03:47:55.808Z,6.55
2022-12-28T03:58:00.276Z,6.67
2022-12-28T04:08:03.031Z,6.53
2022-12-28T04:18:07.224Z,6.59
2022-12-28T04:28:10.008Z,6.69
2022-12-28T04:38:14.229Z,6.72
2022-12-28T04:48:16.945Z,6.81
2022-12-28T04:58:21.009Z,6.83
2022-12-28T05:08:23.689Z,6.88
2022-12-28T05:18:27.923Z,6.91
2022-12-28T05:28:30.790Z,6.93
2022-12-28T05:38:35.334Z,7.03
2022-12-28T05:48:41.003Z,7.01
2022-12-28T05:58:45.499Z,7.13
2022-12-28T06:08:49.472Z,7.28
2022-12-28T06:18:53.634Z,7.34
2022-12-28T06:28:56.541Z,7.55
2022-12-28T06:39:02.534Z,7.57
2022-12-28T06:49:05.456Z,7.61
2022-12-28T06:59:10.103Z,7.73
2022-12-28T07:09:15.275Z,7.83
2022-12-28T07:19:19.349Z,7.96
2022-12-28T07:29:22.229Z,7.98
2022-12-28T07:39:26.335Z,8.09
2022-12-28T07:49:29.280Z,8.21
2022-12-28T07:59:33.313Z,8.33
2022-12-28T08:09:36.039Z,8.36
2022-12-28T08:19:40.113Z,8.46
2022-12-28T08:29:42.894Z,8.55
2022-12-28T08:39:46.928Z,8.66
2022-12-28T08:49:49.726Z,8.81
2022-12-28T08:59:53.780Z,8.85
2022-12-28T09:09:56.650Z,8.91
2022-12-28T09:20:00.741Z,8.87
2022-12-28T09:30:03.972Z,8.82
2022-12-28T09:40:10.913Z,8.97
2022-12-28T09:50:35.498Z,8.95
2022-12-28T10:00:48.955Z,8.97
2022-12-28T10:10:53.006Z,9.04
2022-12-28T10:20:57.901Z,9.15
2022-12-28T10:31:06.900Z,9.14
2022-12-28T10:41:13.092Z,9.25
2022-12-28T10:51:18.635Z,9.24
2022-12-28T11:01:26.716Z,9.39
2022-12-28T11:11:29.816Z,9.41
2022-12-28T11:21:36.007Z,9.59
2022-12-28T11:31:43.565Z,9.63
2022-12-28T11:42:10.352Z,9.62
2022-12-28T11:52:47.540Z,9.77
2022-12-28T12:02:53.330Z,9.82
2022-12-28T12:12:56.921Z,10.03
2022-12-28T12:23:06.988Z,9.70
2022-12-28T12:33:16.080Z,9.61
2022-12-28T12:43:30.505Z,9.61
2022-12-28T12:53:48.934Z,9.62
2022-12-28T13:03:55.731Z,9.61
2022-12-28T13:13:58.804Z,9.57
2022-12-28T13:24:02.843Z,9.63
2022-12-28T13:34:15.896Z,9.56
2022-12-28T13:44:40.296Z,9.66
2022-12-28T13:54:47.647Z,9.47
2022-12-28T14:04:54.516Z,9.50
2022-12-28T14:14:57.726Z,9.47
2022-12-28T14:25:07.822Z,9.47
2022-12-28T14:35:18.791Z,9.51
2022-12-28T14:46:06.717Z,9.40
2022-12-28T14:56:11.167Z,9.41
2022-12-28T15:06:15.389Z,9.44
2022-12-28T15:16:22.828Z,9.35
2022-12-28T15:26:27.869Z,9.34
2022-12-28T15:36:30.830Z,9.27
2022-12-28T15:46:35.474Z,9.35
2022-12-28T15:56:40.261Z,9.48
2022-12-28T16:06:45.328Z,9.48
2022-12-28T16:16:48.297Z,9.48
2022-12-28T16:26:52.589Z,9.62
2022-12-28T16:36:58.163Z,9.61
2022-12-28T16:47:02.241Z,9.67
2022-12-28T16:57:05.340Z,9.61
2022-12-28T17:07:09.401Z,9.61
2022-12-28T17:17:12.332Z,9.48
2022-12-28T17:27:19.203Z,9.45
2022-12-28T17:37:22.329Z,9.39
2022-12-28T17:47:26.501Z,9.35
2022-12-28T17:57:31.757Z,9.22
2022-12-28T18:07:38.043Z,9.21
2022-12-28T18:17:40.784Z,9.14
2022-12-28T18:27:44.843Z,9.05
2022-12-28T18:37:47.847Z,9.05
2022-12-28T18:47:54.649Z,8.95
2022-12-28T18:57:57.474Z,8.93
2022-12-28T19:08:01.533Z,8.91
2022-12-28T19:18:04.280Z,9.00
2022-12-28T19:28:08.836Z,9.05
2022-12-28T19:38:11.752Z,9.07
2022-12-28T19:48:16.142Z,9.03
2022-12-28T19:58:20.536Z,9.02
2022-12-28T20:08:25.041Z,9.17
2022-12-28T20:18:27.877Z,9.14
2022-12-28T20:28:32.743Z,9.08
2022-12-28T20:38:35.755Z,9.03
2022-12-28T20:48:39.791Z,9.14
2022-12-28T20:58:42.893Z,9.29
2022-12-28T21:08:47.113Z,9.14
2022-12-28T21:18:50.927Z,9.18
2022-12-28T21:28:55.111Z,9.31
2022-12-28T21:38:58.006Z,9.30
2022-12-28T21:49:03.465Z,9.45
2022-12-28T21:59:07.209Z,9.47
2022-12-28T22:09:40.715Z,9.62
2022-12-28T22:19:43.904Z,9.81
2022-12-28T22:29:47.975Z,9.94
2022-12-28T22:39:50.985Z,10.26
2022-12-28T22:49:55.291Z,10.15
2022-12-28T22:59:58.146Z,10.37
2022-12-28T23:10:02.436Z,10.30
2022-12-28T23:20:23.389Z,10.48
2022-12-28T23:30:28.518Z,10.64
2022-12-28T23:40:31.524Z,10.78
2022-12-28T23:50:36.910Z,10.75
